Time;durP1;ratioP1;P1;durP2;ratioP2;P2;SDS_P1;SDS_P2;PMS_P1;PMS_P2;Temp;Humidity;BMP_temperature;BMP_pressure;BME280_temperature;BME280_humidity;BME280_pressure;Samples;Min_cycle;Max_cycle;Signal;HPM_P1;HPM_P2
2021/01/12 00:01:06;;;;;;;22.73;14.00;;;1.30;60.70;;;;;;5012996;28;20034;-67
2021/01/12 00:03:32;;;;;;;21.47;12.83;;;1.20;61.10;;;;;;5012871;28;20445;-67
2021/01/12 00:05:57;;;;;;;21.80;12.83;;;1.10;61.50;;;;;;5012427;28;20543;-66
2021/01/12 00:08:23;;;;;;;22.13;13.37;;;1.10;62.90;;;;;;5012378;28;20122;-70
2021/01/12 00:10:49;;;;;;;21.87;12.97;;;1.00;64.10;;;;;;5012434;28;20029;-66
2021/01/12 00:13:14;;;;;;;28.07;16.50;;;1.00;62.90;;;;;;5012427;28;20034;-67
2021/01/12 00:15:40;;;;;;;22.70;13.20;;;1.00;63.10;;;;;;5013035;28;20033;-67
2021/01/12 00:18:06;;;;;;;15.57;10.10;;;1.00;63.30;;;;;;5011858;28;20050;-67
2021/01/12 00:20:32;;;;;;;15.03;9.30;;;0.90;62.60;;;;;;5013209;28;20026;-68
2021/01/12 00:22:57;;;;;;;16.00;10.17;;;1.00;61.90;;;;;;5012354;28;20105;-67
2021/01/12 00:25:23;;;;;;;13.87;8.37;;;1.00;62.60;;;;;;5012204;28;20022;-67
2021/01/12 00:27:48;;;;;;;12.97;7.63;;;1.00;60.40;;;;;;5012142;28;20539;-67
2021/01/12 00:30:15;;;;;;;14.43;7.57;;;1.00;61.10;;;;;;5012153;28;20104;-67
2021/01/12 00:32:40;;;;;;;16.73;7.87;;;1.00;61.80;;;;;;5012117;28;20030;-67
2021/01/12 00:35:07;;;;;;;12.40;8.23;;;1.00;61.60;;;;;;5012204;28;20025;-67
2021/01/12 00:37:33;;;;;;;13.70;8.03;;;1.00;61.20;;;;;;5011705;28;20030;-67
2021/01/12 00:39:58;;;;;;;13.83;7.90;;;1.10;61.20;;;;;;5012789;28;20487;-67
2021/01/12 00:42:24;;;;;;;13.03;8.80;;;1.10;62.00;;;;;;5013114;28;20053;-66
2021/01/12 00:44:50;;;;;;;13.57;8.90;;;1.10;61.50;;;;;;5011601;28;20026;-66
2021/01/12 00:47:15;;;;;;;12.47;8.27;;;1.10;62.00;;;;;;5011497;28;20040;-67
2021/01/12 00:49:41;;;;;;;14.93;8.33;;;1.10;61.70;;;;;;5011537;28;20421;-67
2021/01/12 00:52:11;;;;;;;14.07;8.30;;;1.10;61.50;;;;;;5011810;28;20079;-67
2021/01/12 00:54:36;;;;;;;14.87;8.23;;;1.10;61.00;;;;;;5012388;28;20475;-67
2021/01/12 00:57:02;;;;;;;13.93;8.10;;;1.00;62.50;;;;;;5012597;28;20030;-66
2021/01/12 00:59:28;;;;;;;15.03;8.13;;;1.00;62.30;;;;;;5011404;28;20055;-67
2021/01/12 01:01:58;;;;;;;14.13;8.47;;;1.00;61.60;;;;;;5011823;28;20033;-67
2021/01/12 01:04:25;;;;;;;10.27;7.97;;;0.90;62.80;;;;;;5012269;28;20030;-66
2021/01/12 01:06:51;;;;;;;10.73;7.73;;;0.90;63.70;;;;;;5011639;28;20026;-67
2021/01/12 01:09:17;;;;;;;11.43;7.27;;;0.90;63.90;;;;;;5011423;28;20094;-67
2021/01/12 01:11:47;;;;;;;13.53;8.80;;;0.90;62.00;;;;;;5011317;28;20618;-67
2021/01/12 01:14:13;;;;;;;14.07;8.13;;;0.90;62.50;;;;;;5012518;28;20072;-66
2021/01/12 01:16:39;;;;;;;15.00;8.40;;;0.90;62.20;;;;;;5011783;28;20117;-67
2021/01/12 01:19:06;;;;;;;15.10;8.10;;;0.90;62.60;;;;;;5011227;28;20077;-67
2021/01/12 01:21:32;;;;;;;13.27;8.70;;;0.90;62.30;;;;;;5011962;28;20025;-67
2021/01/12 01:23:58;;;;;;;11.93;8.17;;;0.80;62.10;;;;;;5013636;28;20022;-66
2021/01/12 01:26:23;;;;;;;13.70;8.57;;;0.80;61.90;;;;;;5016304;28;20025;-66
2021/01/12 01:28:49;;;;;;;13.90;8.30;;;0.80;61.80;;;;;;5016265;28;20090;-66
2021/01/12 01:31:16;;;;;;;14.33;8.73;;;0.70;61.50;;;;;;5015191;28;20034;-66
2021/01/12 01:33:41;;;;;;;18.27;11.37;;;0.60;62.00;;;;;;5016441;28;20037;-66
2021/01/12 01:36:10;;;;;;;17.80;10.50;;;0.60;62.80;;;;;;5015100;28;20025;-67
2021/01/12 01:38:37;;;;;;;17.83;10.33;;;0.60;62.50;;;;;;5015192;28;20415;-66
2021/01/12 01:41:05;;;;;;;19.33;10.50;;;0.60;62.10;;;;;;5015527;28;20022;-66
2021/01/12 01:43:32;;;;;;;18.47;11.00;;;0.60;62.60;;;;;;5015075;28;20061;-67
2021/01/12 01:45:58;;;;;;;18.77;10.93;;;0.50;63.20;;;;;;5015205;28;20022;-67
2021/01/12 01:48:24;;;;;;;18.60;10.50;;;0.60;62.80;;;;;;5014556;28;20038;-67
2021/01/12 01:50:50;;;;;;;16.77;10.53;;;0.50;62.80;;;;;;5015920;28;20022;-66
2021/01/12 01:53:15;;;;;;;17.90;10.13;;;0.50;64.70;;;;;;5015672;28;20402;-67
2021/01/12 01:55:43;;;;;;;19.43;11.07;;;0.50;64.30;;;;;;5015189;28;20033;-67
2021/01/12 01:58:09;;;;;;;19.27;10.73;;;0.50;64.10;;;;;;5013318;28;20316;-66
2021/01/12 02:00:36;;;;;;;16.57;10.03;;;0.50;64.00;;;;;;5011780;28;20022;-67
2021/01/12 02:03:25;;;;;;;17.80;10.53;;;0.50;64.00;;;;;;5011956;28;20030;-67
2021/01/12 02:06:03;;;;;;;17.90;10.97;;;0.50;64.60;;;;;;5011363;28;20112;-66
2021/01/12 02:08:56;;;;;;;15.83;10.37;;;0.50;64.70;;;;;;5013589;28;20036;-67
2021/01/12 02:11:24;;;;;;;19.13;10.57;;;0.50;64.00;;;;;;5014749;28;20101;-66
2021/01/12 02:14:03;;;;;;;16.47;9.87;;;0.50;64.00;;;;;;5013478;28;20721;-69
2021/01/12 02:16:29;;;;;;;21.83;10.87;;;0.40;64.40;;;;;;5014250;28;20022;-68
2021/01/12 02:18:59;;;;;;;21.00;11.67;;;0.40;64.30;;;;;;5014725;28;20057;-67
2021/01/12 02:21:27;;;;;;;19.67;11.80;;;0.40;64.40;;;;;;5015078;28;20022;-67
2021/01/12 02:23:57;;;;;;;27.63;12.50;;;0.40;65.10;;;;;;5014852;28;20025;-67
2021/01/12 02:26:25;;;;;;;22.20;12.30;;;0.30;65.90;;;;;;5014739;28;20030;-66
2021/01/12 02:28:51;;;;;;;22.47;12.00;;;0.30;65.50;;;;;;5014055;28;20010;-66
2021/01/12 02:31:17;;;;;;;17.33;11.97;;;0.30;65.10;;;;;;5014879;28;20791;-68
2021/01/12 02:33:47;;;;;;;20.47;11.67;;;0.30;64.30;;;;;;5012525;28;20093;-66
2021/01/12 02:36:14;;;;;;;18.10;11.47;;;;;;;;;;5012536;28;20029;-69
2021/01/12 02:38:41;;;;;;;19.00;11.03;;;;;;;;;;5015214;28;20053;-66
2021/01/12 02:41:11;;;;;;;20.17;10.60;;;;;;;;;;5014155;28;20523;-67
2021/01/12 02:43:37;;;;;;;17.67;10.60;;;;;;;;;;5014258;28;20105;-67
2021/01/12 02:46:03;;;;;;;19.23;11.10;;;;;;;;;;5014660;28;20022;-67
2021/01/12 02:48:29;;;;;;;17.47;9.63;;;;;;;;;;5014283;28;20084;-69
2021/01/12 02:50:55;;;;;;;13.70;9.20;;;;;;;;;;5014794;28;20021;-67
2021/01/12 02:53:21;;;;;;;15.23;9.27;;;;;;;;;;5013919;28;20057;-67
2021/01/12 02:55:47;;;;;;;17.77;10.63;;;;;;;;;;5014533;28;20026;-67
2021/01/12 02:58:13;;;;;;;15.70;9.67;;;;;;;;;;5013574;28;20101;-67
2021/01/12 03:00:39;;;;;;;18.30;10.60;;;;;;;;;;5014066;28;20025;-67
2021/01/12 03:03:05;;;;;;;20.50;10.30;;;;;;;;;;5014268;28;20037;-66
2021/01/12 03:05:31;;;;;;;17.90;10.30;;;;;;;;;;5012985;28;20533;-71
2021/01/12 03:07:57;;;;;;;17.80;10.23;;;;;;;;;;5014235;28;20033;-67
2021/01/12 03:10:23;;;;;;;17.33;9.93;;;;;;;;;;5013961;28;20029;-68
2021/01/12 03:12:49;;;;;;;17.57;10.07;;;;;;;;;;5013096;28;20113;-67
2021/01/12 03:15:15;;;;;;;16.67;9.73;;;;;;;;;;5013428;28;20029;-66
2021/01/12 03:17:41;;;;;;;17.90;10.47;;;;;;;;;;5013839;28;20025;-69
2021/01/12 03:20:07;;;;;;;18.63;10.20;;;;;;;;;;5013422;28;20045;-67
2021/01/12 03:22:33;;;;;;;16.67;9.47;;;;;;;;;;5013855;28;20078;-66
2021/01/12 03:24:59;;;;;;;19.83;10.03;;;;;;;;;;5014029;28;20039;-67
2021/01/12 03:27:25;;;;;;;15.97;9.97;;;;;;;;;;5013070;28;20022;-66
2021/01/12 03:29:51;;;;;;;17.27;10.33;;;;;;;;;;5013200;28;20045;-67
2021/01/12 03:32:17;;;;;;;18.23;10.63;;;;;;;;;;5012643;28;20498;-70
2021/01/12 03:34:43;;;;;;;16.87;9.90;;;;;;;;;;5012506;28;20022;-70
2021/01/12 03:37:10;;;;;;;17.27;10.17;;;;;;;;;;5012986;28;20036;-67
2021/01/12 03:39:36;;;;;;;17.00;9.87;;;;;;;;;;5012836;28;20025;-67
2021/01/12 03:42:02;;;;;;;16.93;10.00;;;;;;;;;;5012876;28;20033;-66
2021/01/12 03:44:28;;;;;;;16.90;10.17;;;;;;;;;;5012413;28;20032;-69
2021/01/12 03:46:54;;;;;;;16.07;10.10;;;;;;;;;;5011952;28;20057;-70
2021/01/12 03:49:22;;;;;;;17.17;10.13;;;;;;;;;;5012354;28;20022;-70
2021/01/12 03:51:48;;;;;;;17.87;10.43;;;;;;;;;;5012420;28;20449;-69
2021/01/12 03:54:14;;;;;;;15.70;9.77;;;;;;;;;;5012539;28;20030;-66
2021/01/12 03:56:40;;;;;;;17.90;10.90;;;;;;;;;;5012228;28;20026;-67
2021/01/12 03:59:07;;;;;;;16.57;9.83;;;;;;;;;;5012455;28;20471;-67
2021/01/12 04:01:33;;;;;;;18.50;10.00;;;;;;;;;;5012427;28;20026;-67
2021/01/12 04:03:59;;;;;;;17.37;9.97;;;;;;;;;;5011945;28;20018;-69
2021/01/12 04:06:25;;;;;;;20.73;10.80;;;;;;;;;;5012338;28;20041;-68
2021/01/12 04:08:55;;;;;;;18.77;11.00;;;;;;;;;;5012209;28;20022;-67
2021/01/12 04:11:21;;;;;;;17.10;10.13;;;;;;;;;;5011880;28;20038;-67
2021/01/12 04:13:47;;;;;;;19.97;10.50;;;;;;;;;;5011814;28;20018;-67
2021/01/12 04:16:13;;;;;;;21.77;10.37;;;;;;;;;;5012173;28;20483;-67
2021/01/12 04:18:39;;;;;;;17.47;10.37;;;;;;;;;;5011730;28;20488;-67
2021/01/12 04:21:05;;;;;;;17.07;9.87;;;;;;;;;;5011815;28;20053;-67
2021/01/12 04:23:31;;;;;;;19.37;10.10;;;;;;;;;;5012399;28;20030;-67
2021/01/12 04:25:57;;;;;;;16.33;9.17;;;;;;;;;;5011909;28;20053;-67
2021/01/12 04:28:23;;;;;;;15.57;9.57;;;;;;;;;;5012217;28;20044;-67
2021/01/12 04:30:49;;;;;;;19.70;9.43;;;;;;;;;;5012102;28;20088;-67
2021/01/12 04:33:15;;;;;;;16.30;9.67;;;;;;;;;;5011750;28;20364;-67
2021/01/12 04:35:41;;;;;;;14.77;8.90;;;;;;;;;;5011879;28;20034;-67
2021/01/12 04:38:07;;;;;;;17.10;8.70;;;;;;;;;;5011991;28;20026;-70
2021/01/12 04:40:34;;;;;;;14.33;8.73;;;;;;;;;;5011721;28;20032;-67
2021/01/12 04:43:00;;;;;;;14.37;8.83;;;;;;;;;;5011484;28;20026;-67
2021/01/12 04:45:26;;;;;;;14.50;8.50;;;;;;;;;;5011555;28;20022;-67
2021/01/12 04:47:53;;;;;;;13.97;8.43;;;;;;;;;;5011416;28;20033;-67
2021/01/12 04:50:19;;;;;;;14.70;8.00;;;;;;;;;;5011573;28;20026;-70
2021/01/12 04:52:49;;;;;;;13.83;7.83;;;;;;;;;;5011543;28;20045;-67
2021/01/12 04:55:15;;;;;;;11.90;7.43;;;;;;;;;;5011522;28;20479;-67
2021/01/12 04:57:41;;;;;;;13.87;7.30;;;;;;;;;;5011197;28;20261;-67
2021/01/12 05:00:10;;;;;;;11.70;7.23;;;;;;;;;;5010737;28;20483;-67
2021/01/12 05:02:36;;;;;;;12.70;8.00;;;;;;;;;;5011130;28;20471;-67
2021/01/12 05:05:02;;;;;;;12.47;7.63;;;;;;;;;;5011363;28;20021;-67
2021/01/12 05:07:28;;;;;;;13.80;7.50;;;;;;;;;;5011268;28;20026;-66
2021/01/12 05:09:54;;;;;;;13.33;7.17;;;;;;;;;;5011383;28;20029;-66
2021/01/12 05:12:20;;;;;;;12.63;7.80;;;;;;;;;;5011327;28;20041;-67
2021/01/12 05:14:47;;;;;;;13.47;7.83;;;;;;;;;;5011094;28;20025;-67
2021/01/12 05:17:14;;;;;;;12.80;7.63;;;;;;;;;;5010695;28;20033;-67
2021/01/12 05:19:41;;;;;;;11.73;7.23;;;;;;;;;;5011167;28;20435;-67
2021/01/12 05:22:08;;;;;;;11.73;6.70;;;;;;;;;;5011341;28;20029;-67
2021/01/12 05:24:41;;;;;;;12.33;7.10;;;;;;;;;;5010773;28;20014;-68
2021/01/12 05:27:07;;;;;;;;;;;;;;;;;;5011347;28;20030;-69
2021/01/12 05:29:34;;;;;;;10.40;6.80;;;;;;;;;;5011438;28;19905;-67
2021/01/12 05:32:01;;;;;;;12.60;7.33;;;;;;;;;;5011042;28;20033;-67
2021/01/12 05:34:29;;;;;;;11.17;7.40;;;;;;;;;;5011369;28;20061;-66
2021/01/12 05:37:00;;;;;;;14.53;7.93;;;;;;;;;;5010864;28;20040;-66
2021/01/12 05:39:27;;;;;;;14.90;9.20;;;;;;;;;;5010680;28;20441;-67
2021/01/12 05:41:54;;;;;;;17.43;8.67;;;;;;;;;;5011100;28;20052;-66
2021/01/12 05:44:21;;;;;;;18.87;9.63;;;;;;;;;;5010747;28;20390;-66
2021/01/12 05:46:48;;;;;;;14.90;8.83;;;;;;;;;;5010822;28;20030;-66
2021/01/12 05:49:17;;;;;;;15.03;8.80;;;;;;;;;;5011170;28;20026;-67
2021/01/12 05:51:47;;;;;;;15.17;9.37;;;;;;;;;;5010514;28;20077;-67
2021/01/12 05:54:32;;;;;;;15.10;9.03;;;;;;;;;;5011030;28;20383;-69
2021/01/12 05:56:59;;;;;;;23.97;9.63;;;;;;;;;;5010639;28;20030;-68
2021/01/12 05:59:27;;;;;;;17.00;9.00;;;;;;;;;;5010635;28;20080;-68
2021/01/12 06:01:53;;;;;;;24.57;9.67;;;;;;;;;;5010852;28;20026;-69
2021/01/12 06:04:19;;;;;;;28.10;11.73;;;;;;;;;;5010872;28;20097;-67
2021/01/12 06:06:46;;;;;;;25.40;11.87;;;;;;;;;;5010505;28;20022;-67
2021/01/12 06:09:13;;;;;;;19.03;9.70;;;;;;;;;;5010797;28;20025;-67
2021/01/12 06:11:40;;;;;;;14.93;8.00;;;;;;;;;;5014038;28;20033;-69
2021/01/12 06:14:08;;;;;;;17.77;8.77;;;;;;;;;;5014182;28;20026;-67
2021/01/12 06:16:35;;;;;;;15.60;9.03;;;;;;;;;;5014552;28;20446;-67
2021/01/12 06:19:07;;;;;;;13.07;7.63;;;;;;;;;;5014090;28;20053;-67
2021/01/12 06:21:44;;;;;;;12.13;8.00;;;;;;;;;;5014164;28;20257;-67
2021/01/12 06:24:11;;;;;;;17.20;8.97;;;;;;;;;;5014374;28;20056;-67
2021/01/12 06:26:40;;;;;;;15.57;8.87;;;;;;;;;;5014024;28;20541;-67
2021/01/12 06:29:08;;;;;;;15.20;9.00;;;;;;;;;;5013850;28;20026;-67
2021/01/12 06:31:47;;;;;;;13.93;9.03;;;;;;;;;;5013746;28;20034;-67
2021/01/12 06:34:17;;;;;;;17.13;8.80;;;;;;;;;;5013618;28;20036;-66
2021/01/12 06:36:48;;;;;;;15.03;8.70;;;;;;;;;;5013463;28;20114;-67
2021/01/12 06:39:16;;;;;;;14.47;8.83;;;;;;;;;;5014156;28;20033;-67
2021/01/12 06:41:43;;;;;;;14.10;8.63;;;;;;;;;;5014447;28;20284;-67
2021/01/12 06:44:17;;;;;;;15.37;8.63;;;;;;;;;;5014001;28;20018;-67
2021/01/12 06:46:43;;;;;;;19.27;9.00;;;;;;;;;;5013329;28;20029;-67
2021/01/12 06:49:09;;;;;;;14.87;8.80;;;;;;;;;;5013549;28;20022;-67
2021/01/12 06:51:36;;;;;;;15.47;9.50;;;;;;;;;;5013911;28;20301;-67
2021/01/12 06:54:02;;;;;;;16.73;8.70;;;;;;;;;;5013748;28;20061;-67
2021/01/12 06:56:33;;;;;;;16.03;9.07;;;;;;;;;;5013739;28;20029;-66
2021/01/12 06:58:59;;;;;;;16.90;8.53;;;;;;;;;;5013577;28;20022;-67
2021/01/12 07:01:27;;;;;;;14.00;8.03;;;;;;;;;;5014121;28;20403;-67
2021/01/12 07:03:53;;;;;;;13.83;8.00;;;;;;;;;;5014252;28;20026;-67
2021/01/12 07:06:25;;;;;;;13.70;8.17;;;;;;;;;;5013581;28;20022;-67
2021/01/12 07:08:55;;;;;;;15.95;7.32;;;;;;;;;;5013562;28;20034;-67
2021/01/12 07:11:22;;;;;;;15.40;8.33;;;;;;;;;;5013073;28;20038;-67
2021/01/12 07:13:51;;;;;;;20.23;9.40;;;;;;;;;;5013363;28;20122;-67
2021/01/12 07:16:17;;;;;;;29.67;9.50;;;;;;;;;;5013300;28;20026;-67
2021/01/12 07:18:44;;;;;;;17.83;9.37;;;;;;;;;;5012826;28;20054;-67
2021/01/12 07:21:14;;;;;;;17.47;8.43;;;;;;;;;;5012592;28;20022;-70
2021/01/12 07:23:41;;;;;;;30.07;9.60;;;;;;;;;;5012317;28;20422;-67
2021/01/12 07:26:07;;;;;;;17.77;7.47;;;;;;;;;;5013164;28;20386;-67
2021/01/12 07:28:34;;;;;;;21.10;8.87;;;;;;;;;;5012904;28;20036;-67
2021/01/12 07:31:00;;;;;;;45.60;12.47;;;;;;;;;;5013223;28;20018;-67
2021/01/12 07:33:30;;;;;;;25.97;9.73;;;;;;;;;;5010572;28;20034;-68
2021/01/12 07:35:58;;;;;;;28.10;9.70;;;;;;;;;;5010391;28;20073;-68
2021/01/12 07:38:25;;;;;;;15.17;8.73;;;;;;;;;;5010701;28;20101;-66
2021/01/12 07:40:53;;;;;;;37.57;9.57;;;;;;;;;;5012730;28;20030;-66
2021/01/12 07:43:20;;;;;;;47.73;10.33;;;;;;;;;;5013044;28;20394;-65
2021/01/12 07:45:50;;;;;;;25.93;9.60;;;;;;;;;;5012314;28;20026;-66
2021/01/12 07:48:16;;;;;;;23.50;9.43;;;;;;;;;;5012488;28;20030;-66
2021/01/12 07:50:46;;;;;;;15.43;8.27;;;;;;;;;;5012662;28;20065;-67
2021/01/12 07:53:15;;;;;;;15.53;8.83;;;;;;;;;;5012551;28;20035;-65
2021/01/12 07:55:42;;;;;;;12.23;6.77;;;;;;;;;;5011625;28;20022;-66
2021/01/12 07:58:09;;;;;;;14.63;7.10;;;;;;;;;;5012435;28;20026;-68
2021/01/12 08:00:35;;;;;;;14.33;7.40;;;;;;;;;;5012786;28;20022;-67
2021/01/12 08:03:01;;;;;;;13.93;7.80;;;;;;;;;;5012146;28;20022;-68
2021/01/12 08:05:28;;;;;;;19.70;8.13;;;;;;;;;;5010151;28;20049;-66
2021/01/12 08:08:07;;;;;;;22.10;7.80;;;;;;;;;;5010267;28;20072;-66
2021/01/12 08:10:34;;;;;;;18.40;7.77;;;;;;;;;;5011640;28;20036;-67
2021/01/12 08:13:18;;;;;;;19.23;9.50;;;;;;;;;;5012211;28;20121;-66
2021/01/12 08:15:44;;;;;;;22.47;11.33;;;;;;;;;;5012271;28;20429;-67
2021/01/12 08:18:11;;;;;;;33.97;19.87;;;;;;;;;;5012082;28;20061;-66
2021/01/12 08:20:38;;;;;;;40.27;23.17;;;;;;;;;;5012155;28;20207;-67
2021/01/12 08:23:04;;;;;;;37.97;24.13;;;;;;;;;;5011898;28;20030;-66
2021/01/12 08:25:32;;;;;;;32.77;21.57;;;;;;;;;;5012000;28;20033;-67
2021/01/12 08:27:59;;;;;;;33.80;19.73;;;;;;;;;;5013147;28;20029;-66
2021/01/12 08:30:27;;;;;;;26.07;15.53;;;;;;;;;;5011622;28;20041;-67
2021/01/12 08:32:58;;;;;;;22.47;13.87;;;;;;;;;;5011877;28;20116;-67
2021/01/12 08:35:26;;;;;;;25.50;14.00;;;;;;;;;;5013469;28;20381;-67
2021/01/12 08:37:52;;;;;;;20.23;12.27;;;;;;;;;;5013268;28;20033;-67
2021/01/12 08:40:19;;;;;;;21.43;12.03;;;;;;;;;;5013104;28;20026;-67
2021/01/12 08:42:45;;;;;;;21.67;12.40;;;;;;;;;;5011615;28;20026;-67
2021/01/12 08:45:12;;;;;;;25.43;12.90;;;;;;;;;;5012334;28;20037;-66
2021/01/12 08:47:38;;;;;;;23.87;14.23;;;;;;;;;;5012911;28;20087;-66
2021/01/12 08:50:05;;;;;;;26.73;16.00;;;;;;;;;;5012575;28;20040;-67
2021/01/12 08:52:31;;;;;;;26.47;15.60;;;;;;;;;;5010991;28;20042;-67
2021/01/12 08:54:57;;;;;;;27.43;12.30;;;;;;;;;;5010944;28;20053;-68
2021/01/12 08:57:24;;;;;;;21.43;11.67;;;;;;;;;;5010540;28;20065;-67
2021/01/12 08:59:49;;;;;;;13.80;8.23;;;;;;;;;;5011835;28;20076;-67
2021/01/12 09:02:19;;;;;;;15.83;7.40;;;;;;;;;;5011411;28;20045;-67
2021/01/12 09:04:46;;;;;;;11.67;6.43;;;;;;;;;;5012293;28;20061;-67
2021/01/12 09:07:12;;;;;;;11.20;6.30;;;;;;;;;;5012198;28;20077;-67
2021/01/12 09:09:38;;;;;;;14.20;6.73;;;;;;;;;;5013223;28;20018;-67
2021/01/12 09:12:04;;;;;;;10.40;6.57;;;;;;;;;;5012506;28;20069;-66
2021/01/12 09:14:31;;;;;;;16.77;6.57;;;;;;;;;;5011934;28;20026;-67
2021/01/12 09:16:58;;;;;;;14.03;6.43;;;;;;;;;;5011463;28;20109;-67
2021/01/12 09:19:24;;;;;;;12.63;5.93;;;;;;;;;;5011718;28;20042;-67
2021/01/12 09:21:50;;;;;;;11.80;5.50;;;;;;;;;;5012037;28;20026;-67
2021/01/12 09:24:18;;;;;;;10.53;5.60;;;;;;;;;;5013106;28;20026;-66
2021/01/12 09:26:44;;;;;;;10.30;5.80;;;;;;;;;;5013207;28;20033;-67
2021/01/12 09:29:10;;;;;;;9.87;5.90;;;;;;;;;;5013086;28;20033;-67
2021/01/12 09:31:43;;;;;;;9.97;5.67;;;;;;;;;;5013068;28;20051;-67
2021/01/12 09:34:09;;;;;;;10.55;6.13;;;;;;;;;;5012619;28;20108;-67
2021/01/12 09:36:35;;;;;;;9.80;5.07;;;;;;;;;;5011650;28;20026;-67
2021/01/12 09:39:04;;;;;;;7.30;4.70;;;;;;;;;;5011291;28;20426;-66
2021/01/12 09:41:31;;;;;;;10.27;4.80;;;;;;;;;;5011092;28;20033;-67
2021/01/12 09:43:57;;;;;;;10.93;5.20;;;;;;;;;;5012128;28;20109;-67
2021/01/12 09:46:24;;;;;;;7.53;4.40;;;;;;;;;;5014698;28;20156;-67
2021/01/12 09:48:50;;;;;;;7.10;4.33;;;;;;;;;;5016148;28;20033;-66
2021/01/12 09:51:16;;;;;;;7.00;4.20;;;;;;;;;;5016245;28;20137;-66
2021/01/12 09:53:43;;;;;;;8.13;4.93;;;;;;;;;;5016107;28;20025;-67
2021/01/12 09:56:12;;;;;;;10.63;5.03;;;;;;;;;;5014639;28;20030;-66
2021/01/12 09:58:39;;;;;;;8.13;4.93;;;;;;;;;;5015477;28;20029;-66
2021/01/12 10:01:05;;;;;;;10.90;4.97;;;;;;;;;;5015236;28;20022;-67
2021/01/12 10:03:31;;;;;;;7.87;4.53;;;;;;;;;;5015052;28;20475;-66
2021/01/12 10:05:57;;;;;;;8.57;4.90;;;;;;;;;;5015889;28;20022;-66
2021/01/12 10:08:26;;;;;;;8.03;4.90;;;;;;;;;;5015700;28;20518;-67
2021/01/12 10:10:53;;;;;;;11.17;4.70;;;;;;;;;;5015290;28;20014;-66
2021/01/12 10:13:19;;;;;;;8.60;4.20;;;;;;;;;;5014800;28;20033;-65
2021/01/12 10:15:45;;;;;;;6.57;4.03;;;;;;;;;;5015398;28;20029;-65
2021/01/12 10:18:12;;;;;;;16.37;5.13;;;;;;;;;;5016035;28;20096;-65
2021/01/12 10:20:38;;;;;;;10.30;5.30;;;;;;;;;;5016024;28;20378;-65
2021/01/12 10:23:04;;;;;;;15.30;4.57;;;;;;;;;;5015945;28;20022;-65
2021/01/12 10:25:30;;;;;;;9.40;4.57;;;;;;;;;;5015715;28;20029;-64
2021/01/12 10:27:56;;;;;;;7.30;4.93;;;;;;;;;;5015607;28;20026;-66
2021/01/12 10:30:22;;;;;;;9.23;4.80;;;;;;;;;;5015742;28;20471;-65
2021/01/12 10:32:49;;;;;;;9.53;4.77;;;;;;;;;;5015526;28;20040;-65
2021/01/12 10:35:15;;;;;;;10.57;4.53;;;;;;;;;;5015773;28;20478;-65
2021/01/12 10:37:43;;;;;;;9.63;4.73;;;;;;;;;;5015608;28;20470;-66
2021/01/12 10:40:09;;;;;;;6.83;4.20;;;;;;;;;;5015297;28;20029;-66
2021/01/12 10:42:35;;;;;;;8.70;4.60;;;;;;;;;;5014854;28;20028;-65
2021/01/12 10:45:01;;;;;;;9.27;4.67;;;;;;;;;;5015336;28;20026;-66
2021/01/12 10:47:31;;;;;;;7.63;4.73;;;;;;;;;;5014976;28;20044;-65
2021/01/12 10:49:57;;;;;;;7.47;4.67;;;;;;;;;;5015525;28;20025;-65
2021/01/12 10:52:23;;;;;;;10.17;5.57;;;;;;;;;;5015600;28;20120;-65
2021/01/12 10:54:49;;;;;;;14.30;6.23;;;;;;;;;;5015433;28;20430;-64
2021/01/12 10:57:15;;;;;;;13.80;6.77;;;;;;;;;;5013995;28;20475;-65
2021/01/12 10:59:41;;;;;;;10.40;6.20;;;;;;;;;;5015153;28;20026;-65
2021/01/12 11:02:08;;;;;;;13.13;6.27;;;;;;;;;;5015110;28;20026;-65
2021/01/12 11:04:34;;;;;;;9.30;5.83;;;;;;;;;;5015458;28;20598;-64
2021/01/12 11:07:01;;;;;;;10.77;6.13;;;;;;;;;;5015206;28;20037;-64
2021/01/12 11:09:27;;;;;;;13.37;6.40;;;;;;;;;;5014920;28;20084;-65
2021/01/12 11:11:58;;;;;;;9.10;5.00;;;;;;;;;;5014789;28;20034;-65
2021/01/12 11:14:25;;;;;;;12.87;6.30;;;;;;;;;;5015307;28;20093;-65
2021/01/12 11:16:51;;;;;;;9.60;5.00;;;;;;;;;;5014760;28;20586;-65
2021/01/12 11:19:17;;;;;;;8.73;5.60;;;;;;;;;;5014725;28;20057;-65
2021/01/12 11:21:47;;;;;;;8.33;5.23;;;;;;;;;;5014927;28;20026;-65
2021/01/12 11:24:15;;;;;;;16.13;5.50;;;;;;;;;;5015199;28;20021;-65
2021/01/12 11:26:44;;;;;;;10.33;5.50;;;;;;;;;;5014541;28;20467;-64
2021/01/12 11:29:11;;;;;;;11.90;6.43;;;;;;;;;;5014697;28;20061;-65
2021/01/12 11:31:39;;;;;;;9.13;5.40;;;;;;;;;;5014581;28;20030;-66
2021/01/12 11:34:05;;;;;;;11.30;5.37;;;;;;;;;;5013340;28;20542;-65
2021/01/12 11:36:34;;;;;;;8.40;5.20;;;;;;;;;;5014039;28;20026;-64
2021/01/12 11:39:01;;;;;;;8.10;4.97;;;;;;;;;;5013630;28;20026;-65
2021/01/12 11:41:27;;;;;;;8.10;4.83;;;;;;;;;;5013962;28;20037;-65
2021/01/12 11:43:53;;;;;;;10.33;4.50;;;;;;;;;;5014111;28;20025;-65
2021/01/12 11:46:29;;;;;;;11.60;4.80;;;;;;;;;;5014008;28;20022;-65
2021/01/12 11:48:56;;;;;;;8.63;4.93;;;;;;;;;;5014462;28;20088;-65
2021/01/12 11:51:22;;;;;;;8.90;5.63;;;;;;;;;;5014564;28;20030;-65
2021/01/12 11:53:51;;;;;;;6.97;4.63;;;;;;;;;;5014250;28;20022;-65
2021/01/12 11:56:18;;;;;;;6.80;4.47;;;;;;;;;;5013405;28;20115;-66
2021/01/12 11:58:44;;;;;;;13.57;4.80;;;;;;;;;;5012878;28;20029;-66
2021/01/12 12:01:10;;;;;;;7.53;4.97;;;;;;;;;;5013795;28;20022;-65
2021/01/12 12:03:36;;;;;;;7.87;4.73;;;;;;;;;;5014538;28;20044;-65
2021/01/12 12:06:02;;;;;;;7.60;4.20;;;;;;;;;;5014006;28;20104;-65
2021/01/12 12:08:28;;;;;;;8.67;4.07;;;;;;;;;;5013587;28;20030;-65
2021/01/12 12:10:54;;;;;;;7.97;4.23;;;;;;;;;;5013902;28;20026;-66
2021/01/12 12:13:20;;;;;;;6.80;4.03;;;;;;;;;;5013987;28;20029;-65
2021/01/12 12:15:47;;;;;;;9.07;3.70;;;;;;;;;;5013913;28;20068;-66
2021/01/12 12:18:13;;;;;;;5.97;3.90;;;;;;;;;;5013813;28;20081;-66
2021/01/12 12:20:41;;;;;;;7.50;3.80;;;;;;;;;;5014009;28;20057;-64
2021/01/12 12:23:07;;;;;;;10.37;5.30;;;;;;;;;;5013717;28;20107;-64
2021/01/12 12:25:33;;;;;;;44.10;21.27;;;;;;;;;;5013649;28;20096;-66
2021/01/12 12:27:59;;;;;;;14.20;6.87;;;;;;;;;;5013524;28;20030;-66
2021/01/12 12:30:25;;;;;;;8.67;5.80;;;;;;;;;;5013793;28;20030;-66
2021/01/12 12:32:51;;;;;;;8.97;4.20;;;;;;;;;;5013537;28;20116;-66
2021/01/12 12:35:17;;;;;;;8.23;3.87;;;;;;;;;;5013601;28;20101;-66
2021/01/12 12:37:43;;;;;;;7.23;3.90;;;;;;;;;;5013772;28;20030;-66
2021/01/12 12:40:09;;;;;;;10.43;3.97;;;;;;;;;;5013628;28;20471;-66
2021/01/12 12:42:35;;;;;;;5.70;3.43;;;;;;;;;;5013801;28;20109;-66
2021/01/12 12:45:01;;;;;;;6.03;3.97;;;;;;;;;;5013195;28;20054;-66
2021/01/12 12:47:27;;;;;;;8.67;4.03;;;;;;;;;;5013004;28;20394;-66
2021/01/12 12:49:53;;;;;;;7.10;4.23;;;;;;;;;;5013219;28;20395;-67
2021/01/12 12:52:20;;;;;;;10.33;3.90;;;;;;;;;;5013316;28;20042;-66
2021/01/12 12:54:46;;;;;;;8.37;4.03;;;;;;;;;;5013243;28;20434;-66
2021/01/12 12:57:12;;;;;;;5.10;3.53;;;;;;;;;;5013366;28;20026;-65
2021/01/12 12:59:38;;;;;;;11.93;3.73;;;;;;;;;;5013327;28;20038;-66
2021/01/12 13:02:04;;;;;;;5.43;3.53;;;;;;;;;;5013283;28;20030;-66
2021/01/12 13:04:30;;;;;;;6.13;3.70;;;;;;;;;;5013201;28;20475;-66
2021/01/12 13:06:56;;;;;;;5.43;2.60;;;;;;;;;;5012204;28;20513;-66
2021/01/12 13:09:22;;;;;;;4.27;2.70;;;;;;;;;;5010519;28;20029;-66
2021/01/12 13:11:55;;;;;;;5.67;3.10;;;;;;;;;;5010365;28;20057;-66
2021/01/12 13:14:21;;;;;;;10.75;3.58;;;;;;;;;;5009608;28;20038;-65
2021/01/12 13:16:48;;;;;;;5.00;3.23;;;;;;;;;;5010403;28;20021;-65
2021/01/12 13:19:15;;;;;;;7.97;3.70;;;;;;;;;;5011443;28;20402;-67
2021/01/12 13:22:09;;;;;;;9.03;3.90;;;;;;;;;;5017305;28;20022;-65
2021/01/12 13:24:35;;;;;;;10.73;3.87;;;;;;;;;;5016169;28;20511;-66
2021/01/12 13:27:02;;;;;;;8.20;3.70;;;;;;;;;;5016601;28;20101;-66
2021/01/12 13:29:28;;;;;;;5.77;3.70;;;;;;;;;;5016772;28;20057;-67
2021/01/12 13:31:54;;;;;;;11.13;5.87;;;;;;;;;;5016835;28;20426;-67
2021/01/12 13:34:21;;;;;;;13.43;7.47;;;;;;;;;;5017012;28;20418;-67
2021/01/12 13:36:47;;;;;;;16.37;8.87;;;;;;;;;;5016570;28;20048;-67
2021/01/12 13:39:14;;;;;;;19.37;8.83;;;;;;;;;;5016731;28;20026;-66
2021/01/12 13:41:40;;;;;;;11.83;6.80;;;;;;;;;;5016453;28;20036;-66
2021/01/12 13:44:06;;;;;;;9.33;4.83;;;;;;;;;;5015511;28;20033;-66
2021/01/12 13:46:33;;;;;;;11.80;5.00;;;;;;;;;;5014879;28;20049;-66
2021/01/12 13:48:59;;;;;;;9.47;5.03;;;;;;;;;;5014952;28;20036;-66
2021/01/12 13:51:25;;;;;;;15.37;5.43;;;;;;;;;;5016090;28;20394;-66
2021/01/12 13:53:51;;;;;;;9.10;4.83;;;;;;;;;;5016342;28;20037;-66
2021/01/12 13:56:19;;;;;;;8.47;4.60;;;;;;;;;;5016131;28;20418;-66
2021/01/12 13:58:45;;;;;;;10.40;6.20;;;;;;;;;;5016156;28;20030;-66
2021/01/12 14:01:13;;;;;;;10.27;6.00;;;;;;;;;;5016016;28;20482;-65
2021/01/12 14:03:39;;;;;;;13.67;5.23;;;;;;;;;;5016407;28;20030;-66
2021/01/12 14:06:05;;;;;;;8.30;4.93;;;;;;;;;;5015227;28;20022;-66
2021/01/12 14:08:31;;;;;;;12.10;4.70;;;;;;;;;;5014312;28;20022;-66